sensor_id;sensor_type;location;lat;lon;timestamp;P1;P2;P0
54021;PMS7003;39936;51.058;17.220;2023-02-19T00:03:16;13;8;6
54021;PMS7003;39936;51.058;17.220;2023-02-19T00:07:31;17;13;8
54021;PMS7003;39936;51.058;17.220;2023-02-19T00:11:07;19;15;9
54021;PMS7003;39936;51.058;17.220;2023-02-19T00:14:44;22;16;9
54021;PMS7003;39936;51.058;17.220;2023-02-19T00:18:26;19;18;12
54021;PMS7003;39936;51.058;17.220;2023-02-19T00:21:50;12;11;7
54021;PMS7003;39936;51.058;17.220;2023-02-19T00:25:31;12;10;6
54021;PMS7003;39936;51.058;17.220;2023-02-19T00:29:23;10;9;6
54021;PMS7003;39936;51.058;17.220;2023-02-19T00:32:32;10;9;5
54021;PMS7003;39936;51.058;17.220;2023-02-19T00:36:00;9;8;5
54021;PMS7003;39936;51.058;17.220;2023-02-19T00:39:14;12;9;5
54021;PMS7003;39936;51.058;17.220;2023-02-19T00:46:36;13;10;6
54021;PMS7003;39936;51.058;17.220;2023-02-19T00:50:06;12;8;5
54021;PMS7003;39936;51.058;17.220;2023-02-19T00:58:57;8;6;4
54021;PMS7003;39936;51.058;17.220;2023-02-19T01:02:36;7;5;4
54021;PMS7003;39936;51.058;17.220;2023-02-19T01:06:27;12;9;4
54021;PMS7003;39936;51.058;17.220;2023-02-19T01:09:41;10;8;6
54021;PMS7003;39936;51.058;17.220;2023-02-19T01:13:10;6;5;3
54021;PMS7003;39936;51.058;17.220;2023-02-19T01:17:13;7;4;2
54021;PMS7003;39936;51.058;17.220;2023-02-19T01:20:41;7;6;4
54021;PMS7003;39936;51.058;17.220;2023-02-19T01:23:51;7;4;3
54021;PMS7003;39936;51.058;17.220;2023-02-19T01:27:48;7;6;3
54021;PMS7003;39936;51.058;17.220;2023-02-19T01:30:54;2;2;1
54021;PMS7003;39936;51.058;17.220;2023-02-19T01:35:01;9;6;3
54021;PMS7003;39936;51.058;17.220;2023-02-19T01:42:57;4;4;2
54021;PMS7003;39936;51.058;17.220;2023-02-19T01:46:32;9;7;3
54021;PMS7003;39936;51.058;17.220;2023-02-19T01:49:45;4;4;3
54021;PMS7003;39936;51.058;17.220;2023-02-19T01:53:09;5;2;1
54021;PMS7003;39936;51.058;17.220;2023-02-19T01:56:36;7;4;2
54021;PMS7003;39936;51.058;17.220;2023-02-19T02:00:53;6;4;2
54021;PMS7003;39936;51.058;17.220;2023-02-19T02:04:20;5;1;1
54021;PMS7003;39936;51.058;17.220;2023-02-19T02:07:44;4;4;1
54021;PMS7003;39936;51.058;17.220;2023-02-19T02:11:26;5;4;2
54021;PMS7003;39936;51.058;17.220;2023-02-19T02:15:08;4;4;3
54021;PMS7003;39936;51.058;17.220;2023-02-19T02:18:44;5;4;1
54021;PMS7003;39936;51.058;17.220;2023-02-19T02:22:19;4;3;1
54021;PMS7003;39936;51.058;17.220;2023-02-19T02:25:46;3;3;2
54021;PMS7003;39936;51.058;17.220;2023-02-19T02:32:42;4;3;2
54021;PMS7003;39936;51.058;17.220;2023-02-19T02:36:01;4;3;1
54021;PMS7003;39936;51.058;17.220;2023-02-19T02:39:43;5;5;3
54021;PMS7003;39936;51.058;17.220;2023-02-19T02:47:12;6;5;3
54021;PMS7003;39936;51.058;17.220;2023-02-19T02:50:32;8;6;4
54021;PMS7003;39936;51.058;17.220;2023-02-19T02:54:13;10;9;5
54021;PMS7003;39936;51.058;17.220;2023-02-19T02:57:44;9;8;5
54021;PMS7003;39936;51.058;17.220;2023-02-19T03:01:10;7;7;4
54021;PMS7003;39936;51.058;17.220;2023-02-19T03:04:43;9;6;3
54021;PMS7003;39936;51.058;17.220;2023-02-19T03:08:14;8;7;3
54021;PMS7003;39936;51.058;17.220;2023-02-19T03:11:59;7;7;5
54021;PMS7003;39936;51.058;17.220;2023-02-19T03:15:59;6;5;3
54021;PMS7003;39936;51.058;17.220;2023-02-19T03:19:51;10;10;5
54021;PMS7003;39936;51.058;17.220;2023-02-19T03:23:09;11;9;6
54021;PMS7003;39936;51.058;17.220;2023-02-19T03:26:38;8;7;5
54021;PMS7003;39936;51.058;17.220;2023-02-19T03:29:53;12;11;7
54021;PMS7003;39936;51.058;17.220;2023-02-19T03:33:34;10;8;4
54021;PMS7003;39936;51.058;17.220;2023-02-19T03:37:12;11;8;5
54021;PMS7003;39936;51.058;17.220;2023-02-19T03:48:17;8;6;4
54021;PMS7003;39936;51.058;17.220;2023-02-19T03:51:56;11;8;5
54021;PMS7003;39936;51.058;17.220;2023-02-19T03:55:21;12;9;6
54021;PMS7003;39936;51.058;17.220;2023-02-19T04:06:25;15;12;6
54021;PMS7003;39936;51.058;17.220;2023-02-19T04:09:39;11;9;7
54021;PMS7003;39936;51.058;17.220;2023-02-19T04:12:58;13;8;6
54021;PMS7003;39936;51.058;17.220;2023-02-19T04:16:38;12;9;6
54021;PMS7003;39936;51.058;17.220;2023-02-19T04:20:11;13;11;7
54021;PMS7003;39936;51.058;17.220;2023-02-19T04:23:20;11;9;5
54021;PMS7003;39936;51.058;17.220;2023-02-19T04:26:57;15;12;8
54021;PMS7003;39936;51.058;17.220;2023-02-19T04:30:39;17;12;8
54021;PMS7003;39936;51.058;17.220;2023-02-19T04:34:17;20;14;10
54021;PMS7003;39936;51.058;17.220;2023-02-19T04:38:11;18;16;9
54021;PMS7003;39936;51.058;17.220;2023-02-19T04:41:31;17;15;9
54021;PMS7003;39936;51.058;17.220;2023-02-19T04:48:55;21;17;10
54021;PMS7003;39936;51.058;17.220;2023-02-19T04:52:09;16;13;8
54021;PMS7003;39936;51.058;17.220;2023-02-19T04:55:18;12;7;4
54021;PMS7003;39936;51.058;17.220;2023-02-19T04:58:49;18;13;8
54021;PMS7003;39936;51.058;17.220;2023-02-19T05:02:05;17;12;7
54021;PMS7003;39936;51.058;17.220;2023-02-19T05:05:37;16;10;6
54021;PMS7003;39936;51.058;17.220;2023-02-19T05:09:06;13;10;6
54021;PMS7003;39936;51.058;17.220;2023-02-19T05:12:43;10;7;3
54021;PMS7003;39936;51.058;17.220;2023-02-19T05:16:24;14;9;4
54021;PMS7003;39936;51.058;17.220;2023-02-19T05:19:53;9;6;3
54021;PMS7003;39936;51.058;17.220;2023-02-19T05:23:22;7;6;4
54021;PMS7003;39936;51.058;17.220;2023-02-19T05:27:34;9;6;3
54021;PMS7003;39936;51.058;17.220;2023-02-19T05:31:06;5;5;2
54021;PMS7003;39936;51.058;17.220;2023-02-19T05:34:37;6;5;2
54021;PMS7003;39936;51.058;17.220;2023-02-19T05:37:57;10;9;4
54021;PMS7003;39936;51.058;17.220;2023-02-19T05:41:26;11;7;4
54021;PMS7003;39936;51.058;17.220;2023-02-19T05:44:35;13;13;6
54021;PMS7003;39936;51.058;17.220;2023-02-19T05:47:57;18;9;5
54021;PMS7003;39936;51.058;17.220;2023-02-19T05:51:10;10;8;4
54021;PMS7003;39936;51.058;17.220;2023-02-19T05:54:27;16;12;6
54021;PMS7003;39936;51.058;17.220;2023-02-19T05:58:07;16;14;7
54021;PMS7003;39936;51.058;17.220;2023-02-19T06:01:29;7;7;4
54021;PMS7003;39936;51.058;17.220;2023-02-19T06:09:34;16;11;4
54021;PMS7003;39936;51.058;17.220;2023-02-19T06:12:46;9;7;3
54021;PMS7003;39936;51.058;17.220;2023-02-19T06:16:29;11;8;4
54021;PMS7003;39936;51.058;17.220;2023-02-19T06:19:48;11;8;4
54021;PMS7003;39936;51.058;17.220;2023-02-19T06:23:06;11;9;4
54021;PMS7003;39936;51.058;17.220;2023-02-19T06:26:34;9;8;6
54021;PMS7003;39936;51.058;17.220;2023-02-19T06:30:07;12;9;5
54021;PMS7003;39936;51.058;17.220;2023-02-19T06:33:25;14;11;6
54021;PMS7003;39936;51.058;17.220;2023-02-19T06:36:57;8;5;4
54021;PMS7003;39936;51.058;17.220;2023-02-19T06:40:17;6;4;1
54021;PMS7003;39936;51.058;17.220;2023-02-19T06:43:58;8;7;3
54021;PMS7003;39936;51.058;17.220;2023-02-19T06:47:50;6;4;1
54021;PMS7003;39936;51.058;17.220;2023-02-19T06:51:23;6;6;1
54021;PMS7003;39936;51.058;17.220;2023-02-19T06:55:21;7;4;1
54021;PMS7003;39936;51.058;17.220;2023-02-19T06:59:16;4;4;2
54021;PMS7003;39936;51.058;17.220;2023-02-19T07:02:48;10;5;3
54021;PMS7003;39936;51.058;17.220;2023-02-19T07:06:27;3;2;1
54021;PMS7003;39936;51.058;17.220;2023-02-19T07:09:57;5;4;3
54021;PMS7003;39936;51.058;17.220;2023-02-19T07:13:30;11;6;3
54021;PMS7003;39936;51.058;17.220;2023-02-19T07:17:24;8;4;2
54021;PMS7003;39936;51.058;17.220;2023-02-19T07:20:33;6;4;2
54021;PMS7003;39936;51.058;17.220;2023-02-19T07:24:23;8;7;4
54021;PMS7003;39936;51.058;17.220;2023-02-19T07:28:15;6;5;2
54021;PMS7003;39936;51.058;17.220;2023-02-19T07:31:44;7;5;3
54021;PMS7003;39936;51.058;17.220;2023-02-19T07:34:54;5;4;1
54021;PMS7003;39936;51.058;17.220;2023-02-19T07:38:24;6;4;2
54021;PMS7003;39936;51.058;17.220;2023-02-19T07:42:04;5;4;2
54021;PMS7003;39936;51.058;17.220;2023-02-19T07:45:16;3;3;0
54021;PMS7003;39936;51.058;17.220;2023-02-19T07:52:43;6;6;3
54021;PMS7003;39936;51.058;17.220;2023-02-19T07:55:49;5;3;2
54021;PMS7003;39936;51.058;17.220;2023-02-19T07:58:59;7;5;2
54021;PMS7003;39936;51.058;17.220;2023-02-19T08:03:00;4;3;2
54021;PMS7003;39936;51.058;17.220;2023-02-19T08:06:08;1;1;0
54021;PMS7003;39936;51.058;17.220;2023-02-19T08:09:36;0;0;0
54021;PMS7003;39936;51.058;17.220;2023-02-19T08:13:09;1;0;0
54021;PMS7003;39936;51.058;17.220;2023-02-19T08:16:51;3;0;0
54021;PMS7003;39936;51.058;17.220;2023-02-19T08:20:20;0;0;0
54021;PMS7003;39936;51.058;17.220;2023-02-19T08:24:23;0;0;0
54021;PMS7003;39936;51.058;17.220;2023-02-19T08:27:53;1;1;0
54021;PMS7003;39936;51.058;17.220;2023-02-19T08:32:08;1;0;0
54021;PMS7003;39936;51.058;17.220;2023-02-19T08:35:50;2;2;0
54021;PMS7003;39936;51.058;17.220;2023-02-19T08:40:06;1;1;0
54021;PMS7003;39936;51.058;17.220;2023-02-19T08:43:35;1;0;0
54021;PMS7003;39936;51.058;17.220;2023-02-19T08:51:08;2;1;0
54021;PMS7003;39936;51.058;17.220;2023-02-19T08:54:36;3;0;0
54021;PMS7003;39936;51.058;17.220;2023-02-19T08:58:09;4;1;0
54021;PMS7003;39936;51.058;17.220;2023-02-19T09:02:01;1;1;0
54021;PMS7003;39936;51.058;17.220;2023-02-19T09:05:10;1;0;0
54021;PMS7003;39936;51.058;17.220;2023-02-19T09:08:20;2;1;0
54021;PMS7003;39936;51.058;17.220;2023-02-19T09:11:45;0;0;0
54021;PMS7003;39936;51.058;17.220;2023-02-19T09:15:31;0;0;0
54021;PMS7003;39936;51.058;17.220;2023-02-19T09:18:56;0;0;0
54021;PMS7003;39936;51.058;17.220;2023-02-19T09:22:08;2;2;0
54021;PMS7003;39936;51.058;17.220;2023-02-19T09:25:18;1;0;0
54021;PMS7003;39936;51.058;17.220;2023-02-19T09:28:45;1;1;0
54021;PMS7003;39936;51.058;17.220;2023-02-19T09:32:16;3;1;0
54021;PMS7003;39936;51.058;17.220;2023-02-19T09:36:02;2;0;0
54021;PMS7003;39936;51.058;17.220;2023-02-19T09:39:29;1;0;0
54021;PMS7003;39936;51.058;17.220;2023-02-19T09:42:37;2;2;0
54021;PMS7003;39936;51.058;17.220;2023-02-19T09:46:34;1;1;0
54021;PMS7003;39936;51.058;17.220;2023-02-19T09:49:54;2;1;0
54021;PMS7003;39936;51.058;17.220;2023-02-19T09:53:30;3;3;0
54021;PMS7003;39936;51.058;17.220;2023-02-19T09:56:53;3;3;1
54021;PMS7003;39936;51.058;17.220;2023-02-19T10:00:23;3;2;0
54021;PMS7003;39936;51.058;17.220;2023-02-19T10:03:58;6;4;2
54021;PMS7003;39936;51.058;17.220;2023-02-19T10:07:48;4;2;0
54021;PMS7003;39936;51.058;17.220;2023-02-19T10:11:14;2;0;0
54021;PMS7003;39936;51.058;17.220;2023-02-19T10:17:50;3;2;0
54021;PMS7003;39936;51.058;17.220;2023-02-19T10:21:51;1;1;0
54021;PMS7003;39936;51.058;17.220;2023-02-19T10:25:22;2;2;0
54021;PMS7003;39936;51.058;17.220;2023-02-19T10:29:15;2;1;0
54021;PMS7003;39936;51.058;17.220;2023-02-19T10:32:26;3;1;0
54021;PMS7003;39936;51.058;17.220;2023-02-19T10:35:54;0;0;0
54021;PMS7003;39936;51.058;17.220;2023-02-19T10:39:53;0;0;0
54021;PMS7003;39936;51.058;17.220;2023-02-19T10:43:32;1;1;0
54021;PMS7003;39936;51.058;17.220;2023-02-19T10:46:45;0;0;0
54021;PMS7003;39936;51.058;17.220;2023-02-19T10:50:19;3;1;0
54021;PMS7003;39936;51.058;17.220;2023-02-19T10:54:02;2;0;0
54021;PMS7003;39936;51.058;17.220;2023-02-19T10:57:33;0;0;0
54021;PMS7003;39936;51.058;17.220;2023-02-19T11:01:08;2;0;0
54021;PMS7003;39936;51.058;17.220;2023-02-19T11:04:37;0;0;0
54021;PMS7003;39936;51.058;17.220;2023-02-19T11:12:25;1;0;0
54021;PMS7003;39936;51.058;17.220;2023-02-19T11:15:52;0;0;0
54021;PMS7003;39936;51.058;17.220;2023-02-19T11:19:22;2;2;0
54021;PMS7003;39936;51.058;17.220;2023-02-19T11:23:28;1;0;0
54021;PMS7003;39936;51.058;17.220;2023-02-19T11:26:44;2;2;0
54021;PMS7003;39936;51.058;17.220;2023-02-19T11:30:40;0;0;0
54021;PMS7003;39936;51.058;17.220;2023-02-19T11:34:22;0;0;0
54021;PMS7003;39936;51.058;17.220;2023-02-19T11:37:54;0;0;0
54021;PMS7003;39936;51.058;17.220;2023-02-19T11:41:12;1;0;0
54021;PMS7003;39936;51.058;17.220;2023-02-19T11:59:46;2;0;0
54021;PMS7003;39936;51.058;17.220;2023-02-19T12:07:00;2;2;0
54021;PMS7003;39936;51.058;17.220;2023-02-19T12:43:32;0;0;0
54021;PMS7003;39936;51.058;17.220;2023-02-19T12:47:04;3;3;0
54021;PMS7003;39936;51.058;17.220;2023-02-19T12:50:38;2;2;1
54021;PMS7003;39936;51.058;17.220;2023-02-19T12:53:57;0;0;0
54021;PMS7003;39936;51.058;17.220;2023-02-19T12:57:35;0;0;0
54021;PMS7003;39936;51.058;17.220;2023-02-19T13:01:32;0;0;0
54021;PMS7003;39936;51.058;17.220;2023-02-19T13:05:12;1;0;0
54021;PMS7003;39936;51.058;17.220;2023-02-19T13:12:36;1;0;0
54021;PMS7003;39936;51.058;17.220;2023-02-19T13:15:51;0;0;0
54021;PMS7003;39936;51.058;17.220;2023-02-19T13:19:24;0;0;0
54021;PMS7003;39936;51.058;17.220;2023-02-19T13:22:38;0;0;0
54021;PMS7003;39936;51.058;17.220;2023-02-19T13:38:04;0;0;0
54021;PMS7003;39936;51.058;17.220;2023-02-19T13:45:41;0;0;0
54021;PMS7003;39936;51.058;17.220;2023-02-19T13:49:49;0;0;0
54021;PMS7003;39936;51.058;17.220;2023-02-19T13:54:12;2;0;0
54021;PMS7003;39936;51.058;17.220;2023-02-19T13:57:40;0;0;0
54021;PMS7003;39936;51.058;17.220;2023-02-19T14:00:50;0;0;0
54021;PMS7003;39936;51.058;17.220;2023-02-19T14:08:12;2;1;0
54021;PMS7003;39936;51.058;17.220;2023-02-19T14:15:43;0;0;0
54021;PMS7003;39936;51.058;17.220;2023-02-19T14:23:23;0;0;0
54021;PMS7003;39936;51.058;17.220;2023-02-19T14:27:19;0;0;0
54021;PMS7003;39936;51.058;17.220;2023-02-19T14:30:24;0;0;0
54021;PMS7003;39936;51.058;17.220;2023-02-19T14:34:02;2;1;0
54021;PMS7003;39936;51.058;17.220;2023-02-19T14:37:41;2;0;0
54021;PMS7003;39936;51.058;17.220;2023-02-19T14:41:35;0;0;0
54021;PMS7003;39936;51.058;17.220;2023-02-19T14:45:07;2;0;0
54021;PMS7003;39936;51.058;17.220;2023-02-19T14:48:37;0;0;0
54021;PMS7003;39936;51.058;17.220;2023-02-19T14:51:56;1;0;0
54021;PMS7003;39936;51.058;17.220;2023-02-19T14:55:14;2;1;0
54021;PMS7003;39936;51.058;17.220;2023-02-19T14:58:33;0;0;0
54021;PMS7003;39936;51.058;17.220;2023-02-19T15:02:28;3;2;0
54021;PMS7003;39936;51.058;17.220;2023-02-19T15:06:42;1;0;0
54021;PMS7003;39936;51.058;17.220;2023-02-19T15:10:22;4;0;0
54021;PMS7003;39936;51.058;17.220;2023-02-19T15:13:54;0;0;0
54021;PMS7003;39936;51.058;17.220;2023-02-19T15:17:09;0;0;0
54021;PMS7003;39936;51.058;17.220;2023-02-19T15:21:01;1;1;0
54021;PMS7003;39936;51.058;17.220;2023-02-19T15:24:16;1;0;0
54021;PMS7003;39936;51.058;17.220;2023-02-19T15:31:58;2;1;0
54021;PMS7003;39936;51.058;17.220;2023-02-19T15:35:18;2;2;0
54021;PMS7003;39936;51.058;17.220;2023-02-19T15:38:28;3;1;0
54021;PMS7003;39936;51.058;17.220;2023-02-19T15:41:59;1;1;0
54021;PMS7003;39936;51.058;17.220;2023-02-19T15:45:30;1;0;0
54021;PMS7003;39936;51.058;17.220;2023-02-19T15:56:21;1;1;0
54021;PMS7003;39936;51.058;17.220;2023-02-19T15:59:42;3;0;0
54021;PMS7003;39936;51.058;17.220;2023-02-19T16:03:22;2;1;0
54021;PMS7003;39936;51.058;17.220;2023-02-19T16:13:51;6;3;1
54021;PMS7003;39936;51.058;17.220;2023-02-19T16:18:11;3;2;1
54021;PMS7003;39936;51.058;17.220;2023-02-19T16:22:03;3;3;1
54021;PMS7003;39936;51.058;17.220;2023-02-19T16:29:20;1;1;0
54021;PMS7003;39936;51.058;17.220;2023-02-19T16:44:48;2;1;0
54021;PMS7003;39936;51.058;17.220;2023-02-19T16:48:15;0;0;0
54021;PMS7003;39936;51.058;17.220;2023-02-19T16:51:26;2;2;1
54021;PMS7003;39936;51.058;17.220;2023-02-19T16:54:32;1;1;0
54021;PMS7003;39936;51.058;17.220;2023-02-19T16:58:19;3;2;0
54021;PMS7003;39936;51.058;17.220;2023-02-19T17:01:43;2;1;0
54021;PMS7003;39936;51.058;17.220;2023-02-19T17:05:10;5;2;1
54021;PMS7003;39936;51.058;17.220;2023-02-19T17:11:39;1;0;0
54021;PMS7003;39936;51.058;17.220;2023-02-19T17:15:39;2;0;0
54021;PMS7003;39936;51.058;17.220;2023-02-19T17:19:20;1;1;0
54021;PMS7003;39936;51.058;17.220;2023-02-19T17:22:52;2;1;0
54021;PMS7003;39936;51.058;17.220;2023-02-19T17:26:28;3;2;0
54021;PMS7003;39936;51.058;17.220;2023-02-19T17:29:37;3;2;0
54021;PMS7003;39936;51.058;17.220;2023-02-19T17:32:44;3;1;0
54021;PMS7003;39936;51.058;17.220;2023-02-19T17:43:43;4;3;1
54021;PMS7003;39936;51.058;17.220;2023-02-19T17:47:27;7;5;3
54021;PMS7003;39936;51.058;17.220;2023-02-19T17:51:00;4;3;3
54021;PMS7003;39936;51.058;17.220;2023-02-19T17:54:09;4;2;2
54021;PMS7003;39936;51.058;17.220;2023-02-19T17:57:15;7;4;2
54021;PMS7003;39936;51.058;17.220;2023-02-19T18:01:07;6;4;2
54021;PMS7003;39936;51.058;17.220;2023-02-19T18:04:37;8;7;5
54021;PMS7003;39936;51.058;17.220;2023-02-19T18:15:44;8;6;4
54021;PMS7003;39936;51.058;17.220;2023-02-19T18:19:35;11;7;5
54021;PMS7003;39936;51.058;17.220;2023-02-19T18:22:48;14;11;8
54021;PMS7003;39936;51.058;17.220;2023-02-19T18:26:16;10;7;5
54021;PMS7003;39936;51.058;17.220;2023-02-19T18:29:29;12;10;5
54021;PMS7003;39936;51.058;17.220;2023-02-19T18:33:41;7;6;3
54021;PMS7003;39936;51.058;17.220;2023-02-19T18:36:51;7;4;3
54021;PMS7003;39936;51.058;17.220;2023-02-19T18:40:24;8;5;3
54021;PMS7003;39936;51.058;17.220;2023-02-19T18:44:18;4;3;2
54021;PMS7003;39936;51.058;17.220;2023-02-19T18:47:26;1;1;0
54021;PMS7003;39936;51.058;17.220;2023-02-19T18:50:53;3;2;1
54021;PMS7003;39936;51.058;17.220;2023-02-19T18:54:23;6;2;1
54021;PMS7003;39936;51.058;17.220;2023-02-19T18:57:34;2;2;2
54021;PMS7003;39936;51.058;17.220;2023-02-19T19:01:15;2;2;2
54021;PMS7003;39936;51.058;17.220;2023-02-19T19:05:06;7;2;0
54021;PMS7003;39936;51.058;17.220;2023-02-19T19:08:36;3;2;0
54021;PMS7003;39936;51.058;17.220;2023-02-19T19:12:41;1;1;0
54021;PMS7003;39936;51.058;17.220;2023-02-19T19:16:16;4;2;0
54021;PMS7003;39936;51.058;17.220;2023-02-19T19:19:55;3;3;2
54021;PMS7003;39936;51.058;17.220;2023-02-19T19:23:58;2;0;0
54021;PMS7003;39936;51.058;17.220;2023-02-19T19:27:28;2;1;0
54021;PMS7003;39936;51.058;17.220;2023-02-19T19:31:33;3;3;0
54021;PMS7003;39936;51.058;17.220;2023-02-19T19:39:08;3;3;1
54021;PMS7003;39936;51.058;17.220;2023-02-19T19:42:38;6;5;3
54021;PMS7003;39936;51.058;17.220;2023-02-19T19:57:44;11;5;2
54021;PMS7003;39936;51.058;17.220;2023-02-19T20:04:53;6;5;3
54021;PMS7003;39936;51.058;17.220;2023-02-19T20:12:33;7;6;4
54021;PMS7003;39936;51.058;17.220;2023-02-19T20:16:33;8;5;4
54021;PMS7003;39936;51.058;17.220;2023-02-19T20:24:16;3;3;2
54021;PMS7003;39936;51.058;17.220;2023-02-19T20:27:49;9;6;3
54021;PMS7003;39936;51.058;17.220;2023-02-19T20:31:13;11;7;4
54021;PMS7003;39936;51.058;17.220;2023-02-19T20:34:32;7;5;3
54021;PMS7003;39936;51.058;17.220;2023-02-19T20:38:14;11;10;6
54021;PMS7003;39936;51.058;17.220;2023-02-19T20:41:59;10;8;4
54021;PMS7003;39936;51.058;17.220;2023-02-19T20:45:34;8;8;4
54021;PMS7003;39936;51.058;17.220;2023-02-19T20:49:18;12;8;4
54021;PMS7003;39936;51.058;17.220;2023-02-19T20:53:07;9;8;4
54021;PMS7003;39936;51.058;17.220;2023-02-19T20:56:45;10;8;4
54021;PMS7003;39936;51.058;17.220;2023-02-19T21:00:35;16;10;7
54021;PMS7003;39936;51.058;17.220;2023-02-19T21:03:46;13;7;5
54021;PMS7003;39936;51.058;17.220;2023-02-19T21:07:34;11;9;5
54021;PMS7003;39936;51.058;17.220;2023-02-19T21:10:57;10;8;5
54021;PMS7003;39936;51.058;17.220;2023-02-19T21:14:05;13;11;6
54021;PMS7003;39936;51.058;17.220;2023-02-19T21:17:26;11;10;6
54021;PMS7003;39936;51.058;17.220;2023-02-19T21:21:23;10;9;4
54021;PMS7003;39936;51.058;17.220;2023-02-19T21:25:28;8;6;4
54021;PMS7003;39936;51.058;17.220;2023-02-19T21:28:41;8;8;5
54021;PMS7003;39936;51.058;17.220;2023-02-19T21:32:10;11;11;7
54021;PMS7003;39936;51.058;17.220;2023-02-19T21:35:39;12;8;4
54021;PMS7003;39936;51.058;17.220;2023-02-19T21:43:16;10;7;4
54021;PMS7003;39936;51.058;17.220;2023-02-19T21:47:17;8;5;3
54021;PMS7003;39936;51.058;17.220;2023-02-19T21:50:48;8;7;4
54021;PMS7003;39936;51.058;17.220;2023-02-19T21:54:07;10;8;5
54021;PMS7003;39936;51.058;17.220;2023-02-19T21:58:09;12;8;4
54021;PMS7003;39936;51.058;17.220;2023-02-19T22:01:50;8;7;6
54021;PMS7003;39936;51.058;17.220;2023-02-19T22:05:52;7;7;3
54021;PMS7003;39936;51.058;17.220;2023-02-19T22:13:21;8;7;3
54021;PMS7003;39936;51.058;17.220;2023-02-19T22:21:09;8;5;3
54021;PMS7003;39936;51.058;17.220;2023-02-19T22:24:17;8;5;3
54021;PMS7003;39936;51.058;17.220;2023-02-19T22:31:20;4;4;1
54021;PMS7003;39936;51.058;17.220;2023-02-19T22:34:40;4;2;1
54021;PMS7003;39936;51.058;17.220;2023-02-19T22:38:11;7;3;1
54021;PMS7003;39936;51.058;17.220;2023-02-19T22:42:01;7;6;3
54021;PMS7003;39936;51.058;17.220;2023-02-19T22:45:20;6;5;3
54021;PMS7003;39936;51.058;17.220;2023-02-19T22:48:29;17;8;5
54021;PMS7003;39936;51.058;17.220;2023-02-19T22:51:38;7;5;3
54021;PMS7003;39936;51.058;17.220;2023-02-19T22:55:15;5;4;3
54021;PMS7003;39936;51.058;17.220;2023-02-19T22:58:41;6;4;3
54021;PMS7003;39936;51.058;17.220;2023-02-19T23:02:32;8;5;2
54021;PMS7003;39936;51.058;17.220;2023-02-19T23:06:25;8;6;4
54021;PMS7003;39936;51.058;17.220;2023-02-19T23:13:24;7;6;4
54021;PMS7003;39936;51.058;17.220;2023-02-19T23:17:16;6;6;4
54021;PMS7003;39936;51.058;17.220;2023-02-19T23:20:46;11;6;5
54021;PMS7003;39936;51.058;17.220;2023-02-19T23:23:56;7;7;3
54021;PMS7003;39936;51.058;17.220;2023-02-19T23:27:34;8;6;3
54021;PMS7003;39936;51.058;17.220;2023-02-19T23:30:44;8;7;4
54021;PMS7003;39936;51.058;17.220;2023-02-19T23:34:24;11;7;4
54021;PMS7003;39936;51.058;17.220;2023-02-19T23:37:50;8;6;3
54021;PMS7003;39936;51.058;17.220;2023-02-19T23:41:30;7;5;3
54021;PMS7003;39936;51.058;17.220;2023-02-19T23:44:59;6;5;3
54021;PMS7003;39936;51.058;17.220;2023-02-19T23:48:25;6;6;4
54021;PMS7003;39936;51.058;17.220;2023-02-19T23:51:57;5;4;3
54021;PMS7003;39936;51.058;17.220;2023-02-19T23:55:43;6;6;3
54021;PMS7003;39936;51.058;17.220;2023-02-19T23:59:14;7;3;2
